Ponderosa Estates, Washington
Current Conditions -  °F | °C
As of 2:58 PM on Thursday 27 Nov 2014 (Local Time) from KTCM Reporting Station
Broken Clouds Broken Clouds  
Wind Chill: 57°   Ceiling: 8000
Heat Index: 57°   Visibility: 10mi
Dew Point: 52°   Wind: 15mph
Humidity: 83%   Direction: 200°SSW
Pressure: 29.81"   Gusts: 24mph
Location:  47.1874°N, 122.164°W
Report Text: KTCM 272258Z AUTO 20013G21KT 10SM FEW048 BKN080 14/11 A2981 RMK AO2 PK WND 22027/05 RAB2159E2208 SLP098 P0000 T01380110 $
Loading
Personal Weather Stations






























Interactive Weather Map New forecast layout! Learn more

10-Day Weather Forecast

Advertisements
Track Severe Weather on mobile